sensor_id;sensor_type;location;lat;lon;timestamp;P1;durP1;ratioP1;P2;durP2;ratioP2
40997;SDS011;26740;45.944;12.480;2022-09-09T00:02:19;6.50;;;1.58;;
40997;SDS011;26740;45.944;12.480;2022-09-09T00:04:58;5.63;;;1.30;;
40997;SDS011;26740;45.944;12.480;2022-09-09T00:15:13;4.78;;;1.30;;
40997;SDS011;26740;45.944;12.480;2022-09-09T00:17:47;4.13;;;1.40;;
40997;SDS011;26740;45.944;12.480;2022-09-09T00:23:12;7.35;;;1.45;;
40997;SDS011;26740;45.944;12.480;2022-09-09T00:28:33;3.13;;;1.30;;
40997;SDS011;26740;45.944;12.480;2022-09-09T00:31:09;8.32;;;1.25;;
40997;SDS011;26740;45.944;12.480;2022-09-09T00:33:38;5.30;;;1.75;;
40997;SDS011;26740;45.944;12.480;2022-09-09T00:36:09;3.45;;;1.40;;
40997;SDS011;26740;45.944;12.480;2022-09-09T00:38:42;5.20;;;1.63;;
40997;SDS011;26740;45.944;12.480;2022-09-09T00:44:07;4.65;;;1.20;;
40997;SDS011;26740;45.944;12.480;2022-09-09T00:55:16;3.67;;;1.30;;
40997;SDS011;26740;45.944;12.480;2022-09-09T00:57:53;5.05;;;1.30;;
40997;SDS011;26740;45.944;12.480;2022-09-09T01:00:20;3.53;;;1.20;;
40997;SDS011;26740;45.944;12.480;2022-09-09T01:11:05;2.42;;;1.48;;
40997;SDS011;26740;45.944;12.480;2022-09-09T01:13:41;5.93;;;1.70;;
40997;SDS011;26740;45.944;12.480;2022-09-09T01:16:11;3.40;;;1.83;;
40997;SDS011;26740;45.944;12.480;2022-09-09T01:18:39;5.88;;;1.50;;
40997;SDS011;26740;45.944;12.480;2022-09-09T01:26:46;4.18;;;1.10;;
40997;SDS011;26740;45.944;12.480;2022-09-09T01:29:16;2.47;;;1.00;;
40997;SDS011;26740;45.944;12.480;2022-09-09T01:34:18;7.95;;;1.60;;
40997;SDS011;26740;45.944;12.480;2022-09-09T01:36:56;3.65;;;1.02;;
40997;SDS011;26740;45.944;12.480;2022-09-09T01:39:25;2.97;;;1.60;;
40997;SDS011;26740;45.944;12.480;2022-09-09T01:41:52;10.43;;;2.13;;
40997;SDS011;26740;45.944;12.480;2022-09-09T01:44:19;6.10;;;1.20;;
40997;SDS011;26740;45.944;12.480;2022-09-09T01:46:45;3.67;;;1.20;;
40997;SDS011;26740;45.944;12.480;2022-09-09T01:49:11;4.50;;;0.82;;
40997;SDS011;26740;45.944;12.480;2022-09-09T01:51:36;6.60;;;1.35;;
40997;SDS011;26740;45.944;12.480;2022-09-09T01:54:04;3.30;;;1.17;;
40997;SDS011;26740;45.944;12.480;2022-09-09T02:04:41;5.93;;;1.23;;
40997;SDS011;26740;45.944;12.480;2022-09-09T02:07:19;6.85;;;1.33;;
40997;SDS011;26740;45.944;12.480;2022-09-09T02:09:49;7.85;;;1.42;;
40997;SDS011;26740;45.944;12.480;2022-09-09T02:12:23;3.47;;;1.17;;
40997;SDS011;26740;45.944;12.480;2022-09-09T02:15:00;2.95;;;1.30;;
40997;SDS011;26740;45.944;12.480;2022-09-09T02:17:36;3.60;;;1.60;;
40997;SDS011;26740;45.944;12.480;2022-09-09T02:20:10;6.53;;;1.58;;
40997;SDS011;26740;45.944;12.480;2022-09-09T02:22:40;6.82;;;1.55;;
40997;SDS011;26740;45.944;12.480;2022-09-09T02:25:10;5.72;;;2.25;;
40997;SDS011;26740;45.944;12.480;2022-09-09T02:27:40;3.90;;;1.08;;
40997;SDS011;26740;45.944;12.480;2022-09-09T02:30:09;2.25;;;1.10;;
40997;SDS011;26740;45.944;12.480;2022-09-09T02:32:35;3.30;;;1.13;;
40997;SDS011;26740;45.944;12.480;2022-09-09T02:35:08;4.47;;;1.60;;
40997;SDS011;26740;45.944;12.480;2022-09-09T02:37:40;7.45;;;1.92;;
40997;SDS011;26740;45.944;12.480;2022-09-09T02:40:10;9.93;;;1.73;;
40997;SDS011;26740;45.944;12.480;2022-09-09T02:42:39;3.83;;;1.23;;
40997;SDS011;26740;45.944;12.480;2022-09-09T02:45:06;5.57;;;1.52;;
40997;SDS011;26740;45.944;12.480;2022-09-09T02:50:35;4.53;;;1.58;;
40997;SDS011;26740;45.944;12.480;2022-09-09T02:56:04;5.45;;;1.63;;
40997;SDS011;26740;45.944;12.480;2022-09-09T02:58:34;6.15;;;2.30;;
40997;SDS011;26740;45.944;12.480;2022-09-09T03:01:01;2.47;;;1.48;;
40997;SDS011;26740;45.944;12.480;2022-09-09T03:03:27;5.43;;;2.38;;
40997;SDS011;26740;45.944;12.480;2022-09-09T03:05:54;3.67;;;1.60;;
40997;SDS011;26740;45.944;12.480;2022-09-09T03:08:19;4.03;;;2.00;;
40997;SDS011;26740;45.944;12.480;2022-09-09T03:10:45;6.43;;;1.55;;
40997;SDS011;26740;45.944;12.480;2022-09-09T03:13:10;3.70;;;1.40;;
40997;SDS011;26740;45.944;12.480;2022-09-09T03:15:37;4.75;;;2.60;;
40997;SDS011;26740;45.944;12.480;2022-09-09T03:18:03;3.10;;;1.52;;
40997;SDS011;26740;45.944;12.480;2022-09-09T03:20:29;9.30;;;1.73;;
40997;SDS011;26740;45.944;12.480;2022-09-09T03:22:55;5.35;;;1.38;;
40997;SDS011;26740;45.944;12.480;2022-09-09T03:25:22;3.63;;;1.35;;
40997;SDS011;26740;45.944;12.480;2022-09-09T03:27:51;2.25;;;1.60;;
40997;SDS011;26740;45.944;12.480;2022-09-09T03:30:23;3.85;;;1.15;;
40997;SDS011;26740;45.944;12.480;2022-09-09T03:35:15;3.78;;;1.30;;
40997;SDS011;26740;45.944;12.480;2022-09-09T03:37:41;4.82;;;2.45;;
40997;SDS011;26740;45.944;12.480;2022-09-09T03:40:07;3.92;;;1.85;;
40997;SDS011;26740;45.944;12.480;2022-09-09T03:42:35;4.70;;;1.67;;
40997;SDS011;26740;45.944;12.480;2022-09-09T03:45:02;6.22;;;1.88;;
40997;SDS011;26740;45.944;12.480;2022-09-09T03:47:34;5.47;;;1.75;;
40997;SDS011;26740;45.944;12.480;2022-09-09T03:49:59;6.03;;;1.38;;
40997;SDS011;26740;45.944;12.480;2022-09-09T03:52:25;4.90;;;1.63;;
40997;SDS011;26740;45.944;12.480;2022-09-09T03:54:51;5.22;;;2.00;;
40997;SDS011;26740;45.944;12.480;2022-09-09T03:57:18;4.85;;;1.85;;
40997;SDS011;26740;45.944;12.480;2022-09-09T03:59:46;7.93;;;2.00;;
40997;SDS011;26740;45.944;12.480;2022-09-09T04:02:11;5.28;;;1.83;;
40997;SDS011;26740;45.944;12.480;2022-09-09T04:04:37;4.35;;;1.98;;
40997;SDS011;26740;45.944;12.480;2022-09-09T04:07:02;5.40;;;2.08;;
40997;SDS011;26740;45.944;12.480;2022-09-09T04:09:30;6.10;;;2.42;;
40997;SDS011;26740;45.944;12.480;2022-09-09T04:11:55;7.05;;;2.22;;
40997;SDS011;26740;45.944;12.480;2022-09-09T04:14:21;3.17;;;1.88;;
40997;SDS011;26740;45.944;12.480;2022-09-09T04:16:47;10.85;;;2.92;;
40997;SDS011;26740;45.944;12.480;2022-09-09T04:19:12;8.68;;;2.85;;
40997;SDS011;26740;45.944;12.480;2022-09-09T04:21:40;4.90;;;1.98;;
40997;SDS011;26740;45.944;12.480;2022-09-09T04:24:06;3.22;;;2.38;;
40997;SDS011;26740;45.944;12.480;2022-09-09T04:26:33;7.28;;;2.97;;
40997;SDS011;26740;45.944;12.480;2022-09-09T04:29:00;6.40;;;2.33;;
40997;SDS011;26740;45.944;12.480;2022-09-09T04:31:25;4.72;;;2.20;;
40997;SDS011;26740;45.944;12.480;2022-09-09T04:33:51;8.05;;;2.15;;
40997;SDS011;26740;45.944;12.480;2022-09-09T04:36:17;7.85;;;2.45;;
40997;SDS011;26740;45.944;12.480;2022-09-09T04:38:46;3.83;;;2.25;;
40997;SDS011;26740;45.944;12.480;2022-09-09T04:41:13;8.38;;;2.50;;
40997;SDS011;26740;45.944;12.480;2022-09-09T04:43:40;7.20;;;2.60;;
40997;SDS011;26740;45.944;12.480;2022-09-09T04:46:06;5.25;;;2.53;;
40997;SDS011;26740;45.944;12.480;2022-09-09T04:48:32;10.55;;;2.90;;
40997;SDS011;26740;45.944;12.480;2022-09-09T04:50:59;6.13;;;2.42;;
40997;SDS011;26740;45.944;12.480;2022-09-09T04:53:26;7.50;;;2.58;;
40997;SDS011;26740;45.944;12.480;2022-09-09T04:56:00;3.40;;;2.17;;
40997;SDS011;26740;45.944;12.480;2022-09-09T04:58:44;5.75;;;2.35;;
40997;SDS011;26740;45.944;12.480;2022-09-09T05:01:17;7.18;;;2.95;;
40997;SDS011;26740;45.944;12.480;2022-09-09T05:03:46;8.55;;;2.55;;
40997;SDS011;26740;45.944;12.480;2022-09-09T05:06:19;6.93;;;2.67;;
40997;SDS011;26740;45.944;12.480;2022-09-09T05:08:46;7.45;;;2.80;;
40997;SDS011;26740;45.944;12.480;2022-09-09T05:13:45;11.52;;;2.83;;
40997;SDS011;26740;45.944;12.480;2022-09-09T05:16:11;6.60;;;2.45;;
40997;SDS011;26740;45.944;12.480;2022-09-09T05:18:38;10.55;;;2.28;;
40997;SDS011;26740;45.944;12.480;2022-09-09T05:21:05;10.00;;;1.70;;
40997;SDS011;26740;45.944;12.480;2022-09-09T05:23:32;8.50;;;1.55;;
40997;SDS011;26740;45.944;12.480;2022-09-09T05:25:59;6.93;;;1.50;;
40997;SDS011;26740;45.944;12.480;2022-09-09T05:28:25;10.23;;;1.40;;
40997;SDS011;26740;45.944;12.480;2022-09-09T05:30:59;12.13;;;1.63;;
40997;SDS011;26740;45.944;12.480;2022-09-09T05:33:29;8.40;;;1.80;;
40997;SDS011;26740;45.944;12.480;2022-09-09T05:35:55;4.25;;;1.30;;
40997;SDS011;26740;45.944;12.480;2022-09-09T05:38:26;5.15;;;1.58;;
40997;SDS011;26740;45.944;12.480;2022-09-09T05:40:52;5.72;;;1.20;;
40997;SDS011;26740;45.944;12.480;2022-09-09T05:43:21;8.07;;;1.73;;
40997;SDS011;26740;45.944;12.480;2022-09-09T05:45:48;3.42;;;1.15;;
40997;SDS011;26740;45.944;12.480;2022-09-09T05:48:27;7.68;;;1.30;;
40997;SDS011;26740;45.944;12.480;2022-09-09T05:50:57;3.95;;;1.80;;
40997;SDS011;26740;45.944;12.480;2022-09-09T05:53:24;6.47;;;2.03;;
40997;SDS011;26740;45.944;12.480;2022-09-09T05:55:57;7.70;;;1.77;;
40997;SDS011;26740;45.944;12.480;2022-09-09T05:58:29;6.90;;;1.75;;
40997;SDS011;26740;45.944;12.480;2022-09-09T06:01:02;8.40;;;2.20;;
40997;SDS011;26740;45.944;12.480;2022-09-09T06:03:33;5.10;;;1.80;;
40997;SDS011;26740;45.944;12.480;2022-09-09T06:06:01;7.30;;;1.67;;
40997;SDS011;26740;45.944;12.480;2022-09-09T06:08:31;8.00;;;1.70;;
40997;SDS011;26740;45.944;12.480;2022-09-09T06:11:00;15.85;;;2.20;;
40997;SDS011;26740;45.944;12.480;2022-09-09T06:13:28;7.93;;;1.25;;
40997;SDS011;26740;45.944;12.480;2022-09-09T06:15:55;8.40;;;2.17;;
40997;SDS011;26740;45.944;12.480;2022-09-09T06:18:21;4.18;;;1.58;;
40997;SDS011;26740;45.944;12.480;2022-09-09T06:20:56;8.20;;;1.95;;
40997;SDS011;26740;45.944;12.480;2022-09-09T06:23:23;8.27;;;2.03;;
40997;SDS011;26740;45.944;12.480;2022-09-09T06:25:50;14.60;;;5.13;;
40997;SDS011;26740;45.944;12.480;2022-09-09T06:28:16;14.82;;;5.78;;
40997;SDS011;26740;45.944;12.480;2022-09-09T06:30:43;9.93;;;2.58;;
40997;SDS011;26740;45.944;12.480;2022-09-09T06:33:09;8.65;;;3.65;;
40997;SDS011;26740;45.944;12.480;2022-09-09T06:35:35;8.75;;;2.95;;
40997;SDS011;26740;45.944;12.480;2022-09-09T06:38:01;6.72;;;1.98;;
40997;SDS011;26740;45.944;12.480;2022-09-09T06:40:26;8.85;;;2.20;;
40997;SDS011;26740;45.944;12.480;2022-09-09T06:42:52;6.20;;;1.80;;
40997;SDS011;26740;45.944;12.480;2022-09-09T06:45:18;8.43;;;1.75;;
40997;SDS011;26740;45.944;12.480;2022-09-09T06:47:43;6.05;;;2.00;;
40997;SDS011;26740;45.944;12.480;2022-09-09T06:50:09;8.10;;;1.67;;
40997;SDS011;26740;45.944;12.480;2022-09-09T06:52:36;6.28;;;1.77;;
40997;SDS011;26740;45.944;12.480;2022-09-09T06:55:02;8.35;;;1.35;;
40997;SDS011;26740;45.944;12.480;2022-09-09T06:57:28;3.28;;;1.25;;
40997;SDS011;26740;45.944;12.480;2022-09-09T06:59:54;5.55;;;1.02;;
40997;SDS011;26740;45.944;12.480;2022-09-09T07:02:19;5.70;;;1.42;;
40997;SDS011;26740;45.944;12.480;2022-09-09T07:04:46;2.15;;;0.90;;
40997;SDS011;26740;45.944;12.480;2022-09-09T07:07:12;4.03;;;1.00;;
40997;SDS011;26740;45.944;12.480;2022-09-09T07:09:40;3.50;;;1.20;;
40997;SDS011;26740;45.944;12.480;2022-09-09T07:12:06;6.45;;;1.15;;
40997;SDS011;26740;45.944;12.480;2022-09-09T07:14:32;8.38;;;1.88;;
40997;SDS011;26740;45.944;12.480;2022-09-09T07:17:01;5.05;;;0.90;;
40997;SDS011;26740;45.944;12.480;2022-09-09T07:19:26;5.95;;;1.33;;
40997;SDS011;26740;45.944;12.480;2022-09-09T07:21:52;3.90;;;1.13;;
40997;SDS011;26740;45.944;12.480;2022-09-09T07:24:17;6.38;;;1.33;;
40997;SDS011;26740;45.944;12.480;2022-09-09T07:26:43;5.35;;;1.10;;
40997;SDS011;26740;45.944;12.480;2022-09-09T07:29:09;4.45;;;1.10;;
40997;SDS011;26740;45.944;12.480;2022-09-09T07:31:35;5.10;;;1.55;;
40997;SDS011;26740;45.944;12.480;2022-09-09T07:34:03;2.28;;;0.73;;
40997;SDS011;26740;45.944;12.480;2022-09-09T07:36:38;6.72;;;0.98;;
40997;SDS011;26740;45.944;12.480;2022-09-09T07:39:06;2.25;;;1.10;;
40997;SDS011;26740;45.944;12.480;2022-09-09T07:41:38;6.43;;;1.40;;
40997;SDS011;26740;45.944;12.480;2022-09-09T07:44:16;8.45;;;1.23;;
40997;SDS011;26740;45.944;12.480;2022-09-09T07:46:46;4.80;;;1.20;;
40997;SDS011;26740;45.944;12.480;2022-09-09T07:49:12;3.88;;;1.15;;
40997;SDS011;26740;45.944;12.480;2022-09-09T07:51:39;2.88;;;0.98;;
40997;SDS011;26740;45.944;12.480;2022-09-09T07:54:07;2.17;;;0.75;;
40997;SDS011;26740;45.944;12.480;2022-09-09T07:56:36;1.90;;;0.90;;
40997;SDS011;26740;45.944;12.480;2022-09-09T07:59:03;1.55;;;0.70;;
40997;SDS011;26740;45.944;12.480;2022-09-09T08:01:32;3.03;;;0.95;;
40997;SDS011;26740;45.944;12.480;2022-09-09T08:04:20;2.28;;;1.05;;
40997;SDS011;26740;45.944;12.480;2022-09-09T08:07:06;4.35;;;1.20;;
40997;SDS011;26740;45.944;12.480;2022-09-09T08:09:31;3.75;;;0.85;;
40997;SDS011;26740;45.944;12.480;2022-09-09T08:11:58;5.63;;;0.90;;
40997;SDS011;26740;45.944;12.480;2022-09-09T08:14:26;0.88;;;0.50;;
40997;SDS011;26740;45.944;12.480;2022-09-09T08:16:51;3.78;;;1.10;;
40997;SDS011;26740;45.944;12.480;2022-09-09T08:19:19;5.80;;;1.20;;
40997;SDS011;26740;45.944;12.480;2022-09-09T08:21:45;9.05;;;1.05;;
40997;SDS011;26740;45.944;12.480;2022-09-09T08:24:11;2.80;;;0.95;;
40997;SDS011;26740;45.944;12.480;2022-09-09T08:26:40;5.53;;;0.60;;
40997;SDS011;26740;45.944;12.480;2022-09-09T08:29:08;3.95;;;0.82;;
40997;SDS011;26740;45.944;12.480;2022-09-09T08:31:39;2.78;;;0.80;;
40997;SDS011;26740;45.944;12.480;2022-09-09T08:34:13;4.45;;;1.10;;
40997;SDS011;26740;45.944;12.480;2022-09-09T08:36:40;5.25;;;0.88;;
40997;SDS011;26740;45.944;12.480;2022-09-09T08:39:08;0.98;;;0.73;;
40997;SDS011;26740;45.944;12.480;2022-09-09T08:44:28;2.03;;;0.60;;
40997;SDS011;26740;45.944;12.480;2022-09-09T08:50:07;5.63;;;0.60;;
40997;SDS011;26740;45.944;12.480;2022-09-09T08:55:22;3.38;;;0.75;;
40997;SDS011;26740;45.944;12.480;2022-09-09T08:58:47;2.70;;;0.60;;
40997;SDS011;26740;45.944;12.480;2022-09-09T09:01:03;5.43;;;0.65;;
40997;SDS011;26740;45.944;12.480;2022-09-09T09:11:39;2.78;;;0.70;;
40997;SDS011;26740;45.944;12.480;2022-09-09T09:14:10;5.03;;;0.88;;
40997;SDS011;26740;45.944;12.480;2022-09-09T09:16:41;2.97;;;0.90;;
40997;SDS011;26740;45.944;12.480;2022-09-09T09:19:13;4.10;;;0.90;;
40997;SDS011;26740;45.944;12.480;2022-09-09T09:21:42;3.72;;;0.85;;
40997;SDS011;26740;45.944;12.480;2022-09-09T09:24:34;8.32;;;1.08;;
40997;SDS011;26740;45.944;12.480;2022-09-09T09:28:18;4.90;;;0.90;;
40997;SDS011;26740;45.944;12.480;2022-09-09T09:30:39;2.17;;;0.80;;
40997;SDS011;26740;45.944;12.480;2022-09-09T09:35:49;3.00;;;0.60;;
40997;SDS011;26740;45.944;12.480;2022-09-09T09:38:19;1.80;;;0.90;;
40997;SDS011;26740;45.944;12.480;2022-09-09T09:40:54;2.88;;;0.50;;
40997;SDS011;26740;45.944;12.480;2022-09-09T09:45:59;3.10;;;0.50;;
40997;SDS011;26740;45.944;12.480;2022-09-09T09:48:26;1.80;;;0.40;;
40997;SDS011;26740;45.944;12.480;2022-09-09T09:53:41;5.85;;;0.95;;
40997;SDS011;26740;45.944;12.480;2022-09-09T09:56:08;0.85;;;0.40;;
40997;SDS011;26740;45.944;12.480;2022-09-09T10:03:50;1.33;;;0.40;;
40997;SDS011;26740;45.944;12.480;2022-09-09T10:06:34;2.15;;;0.82;;
40997;SDS011;26740;45.944;12.480;2022-09-09T10:09:03;6.03;;;0.70;;
40997;SDS011;26740;45.944;12.480;2022-09-09T10:17:41;2.70;;;0.35;;
40997;SDS011;26740;45.944;12.480;2022-09-09T10:22:52;2.42;;;0.43;;
40997;SDS011;26740;45.944;12.480;2022-09-09T10:31:09;4.43;;;0.70;;
40997;SDS011;26740;45.944;12.480;2022-09-09T10:36:35;22.13;;;1.23;;
40997;SDS011;26740;45.944;12.480;2022-09-09T10:42:13;4.28;;;0.50;;
40997;SDS011;26740;45.944;12.480;2022-09-09T10:53:02;5.78;;;0.73;;
40997;SDS011;26740;45.944;12.480;2022-09-09T10:55:43;1.92;;;0.50;;
40997;SDS011;26740;45.944;12.480;2022-09-09T10:58:16;1.55;;;0.45;;
40997;SDS011;26740;45.944;12.480;2022-09-09T11:01:10;2.00;;;0.40;;
40997;SDS011;26740;45.944;12.480;2022-09-09T11:04:05;2.88;;;0.68;;
40997;SDS011;26740;45.944;12.480;2022-09-09T11:06:57;3.45;;;0.82;;
40997;SDS011;26740;45.944;12.480;2022-09-09T11:09:30;1.42;;;0.30;;
40997;SDS011;26740;45.944;12.480;2022-09-09T11:12:02;1.10;;;0.40;;
40997;SDS011;26740;45.944;12.480;2022-09-09T11:14:38;3.38;;;0.40;;
40997;SDS011;26740;45.944;12.480;2022-09-09T11:17:26;5.13;;;0.50;;
40997;SDS011;26740;45.944;12.480;2022-09-09T11:19:58;4.13;;;0.60;;
40997;SDS011;26740;45.944;12.480;2022-09-09T11:25:08;2.35;;;0.68;;
40997;SDS011;26740;45.944;12.480;2022-09-09T11:27:50;2.65;;;0.52;;
40997;SDS011;26740;45.944;12.480;2022-09-09T11:30:28;2.15;;;0.47;;
40997;SDS011;26740;45.944;12.480;2022-09-09T11:35:58;1.65;;;0.60;;
40997;SDS011;26740;45.944;12.480;2022-09-09T11:38:46;7.93;;;0.40;;
40997;SDS011;26740;45.944;12.480;2022-09-09T11:41:16;2.58;;;0.40;;
40997;SDS011;26740;45.944;12.480;2022-09-09T11:43:49;5.90;;;0.50;;
40997;SDS011;26740;45.944;12.480;2022-09-09T11:46:18;1.08;;;0.35;;
40997;SDS011;26740;45.944;12.480;2022-09-09T11:49:03;2.33;;;0.50;;
40997;SDS011;26740;45.944;12.480;2022-09-09T11:51:31;5.28;;;0.35;;
40997;SDS011;26740;45.944;12.480;2022-09-09T11:54:01;3.25;;;0.55;;
40997;SDS011;26740;45.944;12.480;2022-09-09T11:56:48;1.10;;;0.32;;
40997;SDS011;26740;45.944;12.480;2022-09-09T11:59:32;2.72;;;0.40;;
40997;SDS011;26740;45.944;12.480;2022-09-09T12:07:29;4.60;;;0.50;;
40997;SDS011;26740;45.944;12.480;2022-09-09T12:10:02;2.42;;;0.40;;
40997;SDS011;26740;45.944;12.480;2022-09-09T12:12:47;3.03;;;0.40;;
40997;SDS011;26740;45.944;12.480;2022-09-09T12:17:42;1.00;;;0.32;;
40997;SDS011;26740;45.944;12.480;2022-09-09T12:20:14;1.48;;;0.45;;
40997;SDS011;26740;45.944;12.480;2022-09-09T12:28:19;1.08;;;0.25;;
40997;SDS011;26740;45.944;12.480;2022-09-09T12:33:43;1.63;;;0.30;;
40997;SDS011;26740;45.944;12.480;2022-09-09T12:36:14;1.38;;;0.20;;
40997;SDS011;26740;45.944;12.480;2022-09-09T12:38:44;1.25;;;0.20;;
40997;SDS011;26740;45.944;12.480;2022-09-09T12:41:22;2.67;;;0.20;;
40997;SDS011;26740;45.944;12.480;2022-09-09T12:43:49;2.60;;;0.68;;
40997;SDS011;26740;45.944;12.480;2022-09-09T12:52:36;3.72;;;0.25;;
40997;SDS011;26740;45.944;12.480;2022-09-09T12:55:02;1.05;;;0.45;;
40997;SDS011;26740;45.944;12.480;2022-09-09T12:57:34;3.42;;;0.30;;
40997;SDS011;26740;45.944;12.480;2022-09-09T13:00:07;3.50;;;0.50;;
40997;SDS011;26740;45.944;12.480;2022-09-09T13:02:54;3.85;;;0.30;;
40997;SDS011;26740;45.944;12.480;2022-09-09T13:05:24;1.95;;;0.30;;
40997;SDS011;26740;45.944;12.480;2022-09-09T13:08:05;2.30;;;0.50;;
40997;SDS011;26740;45.944;12.480;2022-09-09T13:10:45;2.20;;;0.40;;
40997;SDS011;26740;45.944;12.480;2022-09-09T13:13:22;3.15;;;0.73;;
40997;SDS011;26740;45.944;12.480;2022-09-09T13:15:58;2.17;;;0.30;;
40997;SDS011;26740;45.944;12.480;2022-09-09T13:18:32;1.67;;;0.30;;
40997;SDS011;26740;45.944;12.480;2022-09-09T13:21:05;3.35;;;0.80;;
40997;SDS011;26740;45.944;12.480;2022-09-09T13:23:33;1.58;;;0.30;;
40997;SDS011;26740;45.944;12.480;2022-09-09T13:26:01;0.80;;;0.40;;
40997;SDS011;26740;45.944;12.480;2022-09-09T13:28:48;0.85;;;0.30;;
40997;SDS011;26740;45.944;12.480;2022-09-09T13:31:22;0.80;;;0.30;;
40997;SDS011;26740;45.944;12.480;2022-09-09T13:33:53;2.47;;;0.40;;
40997;SDS011;26740;45.944;12.480;2022-09-09T13:36:27;7.53;;;0.55;;
40997;SDS011;26740;45.944;12.480;2022-09-09T13:39:01;4.22;;;0.40;;
40997;SDS011;26740;45.944;12.480;2022-09-09T13:41:30;3.65;;;0.28;;
40997;SDS011;26740;45.944;12.480;2022-09-09T13:43:56;4.93;;;1.38;;
40997;SDS011;26740;45.944;12.480;2022-09-09T13:51:38;1.58;;;0.30;;
40997;SDS011;26740;45.944;12.480;2022-09-09T13:54:10;2.00;;;0.77;;
40997;SDS011;26740;45.944;12.480;2022-09-09T13:56:37;1.25;;;0.20;;
40997;SDS011;26740;45.944;12.480;2022-09-09T13:59:05;2.30;;;0.20;;
40997;SDS011;26740;45.944;12.480;2022-09-09T14:01:34;3.20;;;0.43;;
40997;SDS011;26740;45.944;12.480;2022-09-09T14:04:00;0.65;;;0.30;;
40997;SDS011;26740;45.944;12.480;2022-09-09T14:06:26;2.17;;;0.38;;
40997;SDS011;26740;45.944;12.480;2022-09-09T14:08:54;1.48;;;0.40;;
40997;SDS011;26740;45.944;12.480;2022-09-09T14:11:19;1.77;;;0.45;;
40997;SDS011;26740;45.944;12.480;2022-09-09T14:13:46;1.60;;;0.30;;
40997;SDS011;26740;45.944;12.480;2022-09-09T14:16:16;2.17;;;0.22;;
40997;SDS011;26740;45.944;12.480;2022-09-09T14:18:43;1.73;;;0.40;;
40997;SDS011;26740;45.944;12.480;2022-09-09T14:21:09;2.92;;;0.45;;
40997;SDS011;26740;45.944;12.480;2022-09-09T14:23:36;1.33;;;0.40;;
40997;SDS011;26740;45.944;12.480;2022-09-09T14:26:03;1.42;;;0.45;;
40997;SDS011;26740;45.944;12.480;2022-09-09T14:28:30;2.35;;;0.38;;
40997;SDS011;26740;45.944;12.480;2022-09-09T14:30:58;1.17;;;0.40;;
40997;SDS011;26740;45.944;12.480;2022-09-09T14:33:26;1.40;;;0.30;;
40997;SDS011;26740;45.944;12.480;2022-09-09T14:35:57;1.25;;;0.28;;
40997;SDS011;26740;45.944;12.480;2022-09-09T14:38:24;2.83;;;0.40;;
40997;SDS011;26740;45.944;12.480;2022-09-09T14:40:50;2.45;;;0.57;;
40997;SDS011;26740;45.944;12.480;2022-09-09T14:43:16;4.07;;;0.40;;
40997;SDS011;26740;45.944;12.480;2022-09-09T14:45:41;2.40;;;0.60;;
40997;SDS011;26740;45.944;12.480;2022-09-09T14:48:08;1.70;;;0.57;;
40997;SDS011;26740;45.944;12.480;2022-09-09T14:50:33;0.63;;;0.30;;
40997;SDS011;26740;45.944;12.480;2022-09-09T14:53:01;2.25;;;0.50;;
40997;SDS011;26740;45.944;12.480;2022-09-09T14:55:27;3.13;;;0.40;;
40997;SDS011;26740;45.944;12.480;2022-09-09T14:57:54;2.58;;;0.50;;
40997;SDS011;26740;45.944;12.480;2022-09-09T15:00:19;2.67;;;0.50;;
40997;SDS011;26740;45.944;12.480;2022-09-09T15:02:45;3.78;;;0.90;;
40997;SDS011;26740;45.944;12.480;2022-09-09T15:05:11;4.15;;;0.75;;
40997;SDS011;26740;45.944;12.480;2022-09-09T15:07:36;4.18;;;0.60;;
40997;SDS011;26740;45.944;12.480;2022-09-09T15:10:03;1.88;;;0.98;;
40997;SDS011;26740;45.944;12.480;2022-09-09T15:12:29;2.72;;;0.52;;
40997;SDS011;26740;45.944;12.480;2022-09-09T15:14:55;4.03;;;0.70;;
40997;SDS011;26740;45.944;12.480;2022-09-09T15:17:21;4.78;;;0.75;;
40997;SDS011;26740;45.944;12.480;2022-09-09T15:19:46;1.05;;;0.52;;
40997;SDS011;26740;45.944;12.480;2022-09-09T15:22:12;2.22;;;0.50;;
40997;SDS011;26740;45.944;12.480;2022-09-09T15:24:38;2.47;;;0.52;;
40997;SDS011;26740;45.944;12.480;2022-09-09T15:27:04;2.78;;;0.50;;
40997;SDS011;26740;45.944;12.480;2022-09-09T15:29:29;4.90;;;0.52;;
40997;SDS011;26740;45.944;12.480;2022-09-09T15:31:55;2.40;;;0.63;;
40997;SDS011;26740;45.944;12.480;2022-09-09T15:34:21;4.95;;;0.43;;
40997;SDS011;26740;45.944;12.480;2022-09-09T15:36:47;4.63;;;1.15;;
40997;SDS011;26740;45.944;12.480;2022-09-09T15:39:14;3.25;;;0.45;;
40997;SDS011;26740;45.944;12.480;2022-09-09T15:41:42;3.40;;;0.32;;
40997;SDS011;26740;45.944;12.480;2022-09-09T15:44:09;2.35;;;0.63;;
40997;SDS011;26740;45.944;12.480;2022-09-09T15:49:08;4.15;;;0.35;;
40997;SDS011;26740;45.944;12.480;2022-09-09T15:51:38;9.65;;;0.35;;
40997;SDS011;26740;45.944;12.480;2022-09-09T15:54:06;7.35;;;0.40;;
40997;SDS011;26740;45.944;12.480;2022-09-09T15:56:32;1.77;;;0.52;;
40997;SDS011;26740;45.944;12.480;2022-09-09T15:58:58;2.45;;;0.40;;
40997;SDS011;26740;45.944;12.480;2022-09-09T16:01:25;4.50;;;0.40;;
40997;SDS011;26740;45.944;12.480;2022-09-09T16:03:52;2.45;;;0.40;;
40997;SDS011;26740;45.944;12.480;2022-09-09T16:06:19;3.15;;;0.38;;
40997;SDS011;26740;45.944;12.480;2022-09-09T16:08:48;5.07;;;0.73;;
40997;SDS011;26740;45.944;12.480;2022-09-09T16:11:16;3.38;;;0.25;;
40997;SDS011;26740;45.944;12.480;2022-09-09T16:13:45;4.00;;;0.40;;
40997;SDS011;26740;45.944;12.480;2022-09-09T16:16:12;1.60;;;0.40;;
40997;SDS011;26740;45.944;12.480;2022-09-09T16:18:41;0.73;;;0.28;;
40997;SDS011;26740;45.944;12.480;2022-09-09T16:21:20;2.45;;;0.30;;
40997;SDS011;26740;45.944;12.480;2022-09-09T16:23:49;1.85;;;0.25;;
40997;SDS011;26740;45.944;12.480;2022-09-09T16:26:21;4.03;;;0.30;;
40997;SDS011;26740;45.944;12.480;2022-09-09T16:28:47;1.88;;;0.28;;
40997;SDS011;26740;45.944;12.480;2022-09-09T16:31:15;2.00;;;0.30;;
40997;SDS011;26740;45.944;12.480;2022-09-09T16:33:44;4.60;;;0.30;;
40997;SDS011;26740;45.944;12.480;2022-09-09T16:36:18;1.90;;;0.40;;
40997;SDS011;26740;45.944;12.480;2022-09-09T16:38:51;1.55;;;0.25;;
40997;SDS011;26740;45.944;12.480;2022-09-09T16:41:22;3.28;;;0.50;;
40997;SDS011;26740;45.944;12.480;2022-09-09T16:44:05;0.50;;;0.30;;
40997;SDS011;26740;45.944;12.480;2022-09-09T16:46:34;1.58;;;0.20;;
40997;SDS011;26740;45.944;12.480;2022-09-09T16:49:03;1.88;;;0.30;;
40997;SDS011;26740;45.944;12.480;2022-09-09T16:51:31;2.80;;;0.40;;
40997;SDS011;26740;45.944;12.480;2022-09-09T16:54:00;4.80;;;0.50;;
40997;SDS011;26740;45.944;12.480;2022-09-09T16:56:29;1.95;;;0.40;;
40997;SDS011;26740;45.944;12.480;2022-09-09T16:59:03;2.55;;;0.30;;
40997;SDS011;26740;45.944;12.480;2022-09-09T17:01:31;1.90;;;0.20;;
40997;SDS011;26740;45.944;12.480;2022-09-09T17:04:03;1.58;;;0.40;;
40997;SDS011;26740;45.944;12.480;2022-09-09T17:06:31;0.38;;;0.20;;
40997;SDS011;26740;45.944;12.480;2022-09-09T17:09:00;2.35;;;0.20;;
40997;SDS011;26740;45.944;12.480;2022-09-09T17:11:27;2.08;;;0.50;;
40997;SDS011;26740;45.944;12.480;2022-09-09T17:13:54;2.15;;;0.38;;
40997;SDS011;26740;45.944;12.480;2022-09-09T17:16:23;1.27;;;0.20;;
40997;SDS011;26740;45.944;12.480;2022-09-09T17:18:55;0.57;;;0.25;;
40997;SDS011;26740;45.944;12.480;2022-09-09T17:21:22;1.48;;;0.50;;
40997;SDS011;26740;45.944;12.480;2022-09-09T17:23:50;0.70;;;0.20;;
40997;SDS011;26740;45.944;12.480;2022-09-09T17:26:18;2.28;;;0.30;;